Time;durP1;ratioP1;P1;durP2;ratioP2;P2;SDS_P1;SDS_P2;PMS_P1;PMS_P2;Temp;Humidity;BMP_temperature;BMP_pressure;BME280_temperature;BME280_humidity;BME280_pressure;Samples;Min_cycle;Max_cycle;Signal;HPM_P1;HPM_P2
2022/07/25 00:02:16;;;;;;;3.08;2.45;;;23.60;98.30;;;;;;4861465;29;20037;-76
2022/07/25 00:04:42;;;;;;;2.85;2.58;;;23.60;98.20;;;;;;4877105;29;20049;-76
2022/07/25 00:07:07;;;;;;;2.80;2.50;;;23.50;98.30;;;;;;4861348;29;20048;-76
2022/07/25 00:09:33;;;;;;;3.10;2.78;;;23.50;98.30;;;;;;4857519;29;20431;-76
2022/07/25 00:11:59;;;;;;;3.85;2.50;;;23.50;98.50;;;;;;4861119;29;20041;-76
2022/07/25 00:14:25;;;;;;;3.65;2.78;;;23.40;98.60;;;;;;4862045;29;20056;-76
2022/07/25 00:16:51;;;;;;;3.45;2.80;;;23.40;98.80;;;;;;4856720;29;20447;-76
2022/07/25 00:19:17;;;;;;;4.05;2.80;;;23.30;99.00;;;;;;4877045;29;20116;-76
2022/07/25 00:21:43;;;;;;;4.65;2.70;;;23.30;99.00;;;;;;4873041;29;20056;-76
2022/07/25 00:24:09;;;;;;;3.30;3.00;;;23.30;99.10;;;;;;4871320;29;20128;-76
2022/07/25 00:26:34;;;;;;;3.95;2.72;;;23.20;99.10;;;;;;4851136;29;20430;-76
2022/07/25 00:29:00;;;;;;;4.05;3.10;;;23.20;99.10;;;;;;4856175;29;20049;-76
2022/07/25 00:31:26;;;;;;;4.75;3.30;;;23.20;99.20;;;;;;4867236;29;20100;-76
2022/07/25 00:33:52;;;;;;;4.00;3.10;;;23.20;99.30;;;;;;4857360;29;20049;-76
2022/07/25 00:36:18;;;;;;;3.85;3.35;;;23.20;99.40;;;;;;4861619;29;20041;-76
2022/07/25 00:38:43;;;;;;;4.72;2.95;;;23.10;99.40;;;;;;4885483;29;20042;-76
2022/07/25 00:41:09;;;;;;;3.33;3.00;;;23.10;99.60;;;;;;4874684;29;20044;-76
2022/07/25 00:43:35;;;;;;;4.45;3.33;;;23.10;99.70;;;;;;4865159;29;20044;-76
2022/07/25 00:46:00;;;;;;;4.43;3.83;;;23.10;99.70;;;;;;4850692;29;20038;-76
2022/07/25 00:48:27;;;;;;;4.50;3.63;;;23.00;99.60;;;;;;4853104;29;20041;-76
2022/07/25 00:50:57;;;;;;;6.07;3.83;;;23.00;99.60;;;;;;4860392;29;20260;-76
2022/07/25 00:53:24;;;;;;;4.65;3.90;;;23.00;99.70;;;;;;4844949;29;20462;-76
2022/07/25 00:55:50;;;;;;;5.22;4.50;;;23.00;99.80;;;;;;4864270;29;20085;-76
2022/07/25 00:58:17;;;;;;;5.72;4.45;;;23.00;99.80;;;;;;4841624;29;20041;-76
2022/07/25 01:00:43;;;;;;;4.63;4.05;;;23.00;99.70;;;;;;4872164;29;20097;-76
2022/07/25 01:03:09;;;;;;;9.05;4.30;;;23.00;99.80;;;;;;4852117;29;20045;-76
2022/07/25 01:05:34;;;;;;;6.68;4.45;;;22.90;99.80;;;;;;4888424;29;20045;-76
2022/07/25 01:08:01;;;;;;;5.78;4.68;;;22.90;99.80;;;;;;4865217;29;20052;-77
2022/07/25 01:10:30;;;;;;;7.95;4.82;;;22.90;99.70;;;;;;4864670;29;20050;-77
2022/07/25 01:12:56;;;;;;;5.63;4.63;;;22.90;99.70;;;;;;4856381;29;20053;-77
2022/07/25 01:15:23;;;;;;;4.80;4.20;;;22.80;99.70;;;;;;4853754;29;20056;-76
2022/07/25 01:17:49;;;;;;;8.68;4.78;;;22.80;99.80;;;;;;4868441;29;20058;-76
2022/07/25 01:20:22;;;;;;;4.90;4.47;;;22.80;99.70;;;;;;4867319;29;20044;-77
2022/07/25 01:22:49;;;;;;;7.80;4.90;;;22.80;99.70;;;;;;4857644;29;20169;-77
2022/07/25 01:25:16;;;;;;;6.95;4.75;;;22.80;99.70;;;;;;4867456;29;20060;-76
2022/07/25 01:27:42;;;;;;;6.22;4.63;;;22.80;99.80;;;;;;4855588;29;20495;-76
2022/07/25 01:30:10;;;;;;;6.47;4.82;;;22.80;99.90;;;;;;4865630;29;20045;-76
2022/07/25 01:32:36;;;;;;;6.22;4.15;;;22.70;99.90;;;;;;4867145;29;20415;-76
2022/07/25 01:35:04;;;;;;;5.82;4.15;;;22.70;99.90;;;;;;4868319;29;20045;-76
2022/07/25 01:37:30;;;;;;;5.32;4.38;;;22.60;99.90;;;;;;4863620;29;20410;-76
2022/07/25 01:39:56;;;;;;;6.88;4.28;;;22.60;99.90;;;;;;4862472;29;20046;-76
2022/07/25 01:42:22;;;;;;;5.30;4.32;;;22.60;99.90;;;;;;4866173;29;20042;-76
2022/07/25 01:44:48;;;;;;;5.75;4.50;;;22.60;99.90;;;;;;4875057;29;20136;-76
2022/07/25 01:47:14;;;;;;;5.25;4.40;;;22.50;99.90;;;;;;4856100;29;20064;-76
2022/07/25 01:49:39;;;;;;;5.90;4.75;;;22.50;99.90;;;;;;4859520;29;20068;-76
2022/07/25 01:52:05;;;;;;;5.53;4.65;;;22.50;99.90;;;;;;4870738;29;20117;-76
2022/07/25 01:54:31;;;;;;;5.97;4.97;;;22.40;99.90;;;;;;4862628;29;20059;-77
2022/07/25 01:56:57;;;;;;;5.72;4.53;;;22.30;99.90;;;;;;4879405;29;20104;-76
2022/07/25 01:59:23;;;;;;;6.45;4.28;;;22.30;99.90;;;;;;4866567;29;20487;-76
2022/07/25 02:01:48;;;;;;;7.00;4.80;;;22.30;99.90;;;;;;4863168;29;20033;-76
2022/07/25 02:04:14;;;;;;;5.43;4.82;;;22.30;99.90;;;;;;4856707;29;20041;-76
2022/07/25 02:06:40;;;;;;;5.50;4.60;;;22.20;99.90;;;;;;4866192;29;20052;-76
2022/07/25 02:09:06;;;;;;;6.05;4.75;;;22.20;99.90;;;;;;4851492;29;20048;-76
2022/07/25 02:11:32;;;;;;;8.35;5.22;;;22.10;99.90;;;;;;4867935;29;20053;-77
2022/07/25 02:13:58;;;;;;;6.38;4.95;;;22.10;99.90;;;;;;4875196;29;20666;-76
2022/07/25 02:16:24;;;;;;;5.70;5.10;;;22.10;99.90;;;;;;4871767;29;20048;-76
2022/07/25 02:18:50;;;;;;;6.53;5.10;;;22.10;99.90;;;;;;4859692;29;20056;-76
2022/07/25 02:21:16;;;;;;;6.43;5.10;;;22.10;99.90;;;;;;4869174;29;20091;-76
2022/07/25 02:23:43;;;;;;;9.02;5.85;;;22.10;99.90;;;;;;4871794;29;20047;-76
2022/07/25 02:26:10;;;;;;;5.97;5.38;;;22.10;99.90;;;;;;4856996;29;20109;-76
2022/07/25 02:28:36;;;;;;;6.25;5.63;;;22.10;99.90;;;;;;4866532;29;20174;-76
2022/07/25 02:31:02;;;;;;;6.30;5.70;;;22.10;99.90;;;;;;4862150;29;20218;-76
2022/07/25 02:33:27;;;;;;;10.65;7.35;;;22.10;99.90;;;;;;4867154;29;20041;-76
2022/07/25 02:35:53;;;;;;;8.38;7.40;;;22.00;99.90;;;;;;4861297;29;20055;-76
2022/07/25 02:38:18;;;;;;;8.25;6.68;;;22.00;99.90;;;;;;4853900;29;20490;-76
2022/07/25 02:40:50;;;;;;;7.88;6.53;;;22.10;99.90;;;;;;4841649;29;20483;-76
2022/07/25 02:43:16;;;;;;;7.57;6.75;;;22.00;99.90;;;;;;4867748;29;20577;-77
2022/07/25 02:45:42;;;;;;;6.80;6.05;;;22.00;99.90;;;;;;4869181;29;20371;-77
2022/07/25 02:48:09;;;;;;;7.28;6.55;;;22.00;99.90;;;;;;4873017;29;20130;-76
2022/07/25 02:50:36;;;;;;;7.45;6.53;;;22.00;99.90;;;;;;4849961;29;20068;-76
2022/07/25 02:53:02;;;;;;;8.70;7.07;;;22.00;99.90;;;;;;4871385;29;20097;-76
2022/07/25 02:55:28;;;;;;;9.07;8.13;;;22.00;99.90;;;;;;4854727;29;20056;-76
2022/07/25 02:57:53;;;;;;;7.65;6.85;;;22.00;99.90;;;;;;4873946;29;20049;-76
2022/07/25 03:00:19;;;;;;;8.75;7.20;;;21.90;99.90;;;;;;4874431;29;20045;-76
2022/07/25 03:02:45;;;;;;;7.97;6.90;;;21.90;99.90;;;;;;4873682;29;20043;-76
2022/07/25 03:05:13;;;;;;;7.90;7.10;;;21.90;99.90;;;;;;4864826;29;20486;-76
2022/07/25 03:07:40;;;;;;;8.65;6.88;;;21.80;99.90;;;;;;4843182;29;20045;-76
2022/07/25 03:10:08;;;;;;;9.38;6.78;;;21.80;99.90;;;;;;4872675;29;20097;-76
2022/07/25 03:12:33;;;;;;;8.98;7.30;;;21.80;99.90;;;;;;4865040;29;20052;-76
2022/07/25 03:15:00;;;;;;;10.30;7.53;;;21.80;99.90;;;;;;4854374;29;20045;-76
2022/07/25 03:17:27;;;;;;;7.60;6.82;;;21.80;99.90;;;;;;4856878;29;20121;-76
2022/07/25 03:19:54;;;;;;;8.82;6.85;;;21.70;99.90;;;;;;4867632;29;20055;-76
2022/07/25 03:22:20;;;;;;;9.85;7.15;;;21.70;99.90;;;;;;4870887;29;20545;-76
2022/07/25 03:24:46;;;;;;;13.55;7.65;;;21.60;99.90;;;;;;4852872;29;20060;-76
2022/07/25 03:27:11;;;;;;;8.95;6.90;;;21.60;99.90;;;;;;4856148;29;20040;-76
2022/07/25 03:29:37;;;;;;;8.23;7.30;;;21.60;99.90;;;;;;4851263;29;20042;-76
2022/07/25 03:32:03;;;;;;;8.35;6.95;;;21.60;99.90;;;;;;4873641;29;20053;-76
2022/07/25 03:34:29;;;;;;;8.98;7.90;;;21.50;99.90;;;;;;4861544;29;20410;-76
2022/07/25 03:36:55;;;;;;;9.30;8.35;;;21.50;99.90;;;;;;4863878;29;20048;-76
2022/07/25 03:39:23;;;;;;;9.90;7.15;;;21.50;99.90;;;;;;4864699;29;20048;-76
2022/07/25 03:41:49;;;;;;;8.68;7.43;;;21.40;99.90;;;;;;4857125;29;20129;-76
2022/07/25 03:44:15;;;;;;;9.00;8.10;;;21.40;99.90;;;;;;4860153;29;20048;-76
2022/07/25 03:46:41;;;;;;;10.90;8.48;;;21.40;99.90;;;;;;4869103;29;20052;-76
2022/07/25 03:49:06;;;;;;;8.55;7.63;;;21.40;99.90;;;;;;4852145;29;20185;-76
2022/07/25 03:51:32;;;;;;;11.98;8.15;;;21.30;99.90;;;;;;4856595;29;20053;-76
2022/07/25 03:54:00;;;;;;;9.90;8.25;;;21.20;99.90;;;;;;4846227;29;20141;-76
2022/07/25 03:56:30;;;;;;;11.30;8.60;;;21.20;99.90;;;;;;4859407;29;20399;-76
2022/07/25 03:58:56;;;;;;;9.68;8.60;;;21.30;99.90;;;;;;4859763;29;20049;-76
2022/07/25 04:01:21;;;;;;;10.77;9.30;;;21.20;99.90;;;;;;4867727;29;20456;-76
2022/07/25 04:03:47;;;;;;;11.30;9.35;;;21.20;99.90;;;;;;4868048;29;20037;-76
2022/07/25 04:06:13;;;;;;;10.50;9.40;;;21.20;99.90;;;;;;4862429;29;20049;-76
2022/07/25 04:08:38;;;;;;;10.20;9.13;;;21.20;99.90;;;;;;4866659;29;20463;-76
2022/07/25 04:11:04;;;;;;;12.02;10.07;;;21.20;99.90;;;;;;4853965;29;20077;-76
2022/07/25 04:13:30;;;;;;;10.60;9.18;;;21.10;99.90;;;;;;4845777;29;20112;-76
2022/07/25 04:15:56;;;;;;;9.90;8.73;;;21.10;99.90;;;;;;4859104;29;20482;-76
2022/07/25 04:18:21;;;;;;;11.35;10.18;;;21.10;99.90;;;;;;4864837;29;20088;-76
2022/07/25 04:20:47;;;;;;;11.80;10.57;;;21.10;99.90;;;;;;4866858;29;20517;-76
2022/07/25 04:23:13;;;;;;;12.13;10.02;;;21.20;99.90;;;;;;4864977;29;20072;-76
2022/07/25 04:25:39;;;;;;;10.50;9.40;;;21.10;99.90;;;;;;4860335;29;20097;-77
2022/07/25 04:28:04;;;;;;;13.60;11.23;;;21.10;99.90;;;;;;4852020;29;20041;-76
2022/07/25 04:30:30;;;;;;;12.50;11.13;;;21.20;99.90;;;;;;4864054;29;20147;-76
2022/07/25 04:32:56;;;;;;;12.75;10.88;;;21.20;99.90;;;;;;4862943;29;20512;-76
2022/07/25 04:35:22;;;;;;;11.98;10.60;;;21.20;99.90;;;;;;4868690;29;20530;-77
2022/07/25 04:37:48;;;;;;;11.25;10.15;;;21.20;99.90;;;;;;4885668;29;20048;-76
2022/07/25 04:40:13;;;;;;;11.80;10.60;;;21.20;99.90;;;;;;4848625;29;20136;-77
2022/07/25 04:42:39;;;;;;;12.05;10.73;;;21.20;99.90;;;;;;4864369;29;20124;-76
2022/07/25 04:45:05;;;;;;;13.35;11.07;;;21.20;99.90;;;;;;4869559;29;20524;-76
2022/07/25 04:47:31;;;;;;;12.00;10.55;;;21.20;99.90;;;;;;4856703;29;20121;-76
2022/07/25 04:49:57;;;;;;;11.98;10.73;;;21.20;99.90;;;;;;4866330;29;20502;-76
2022/07/25 04:52:22;;;;;;;12.02;10.23;;;21.30;99.90;;;;;;4863951;29;20049;-76
2022/07/25 04:54:48;;;;;;;12.05;10.65;;;21.30;99.90;;;;;;4863913;29;20042;-76
2022/07/25 04:57:14;;;;;;;13.85;11.23;;;21.30;99.90;;;;;;4860937;29;20037;-76
2022/07/25 04:59:40;;;;;;;14.48;11.38;;;21.30;99.90;;;;;;4854874;29;20073;-76
2022/07/25 05:02:05;;;;;;;13.65;11.23;;;21.40;99.90;;;;;;4857713;29;20042;-76
2022/07/25 05:04:31;;;;;;;13.45;11.65;;;21.40;99.90;;;;;;4855238;29;20069;-76
2022/07/25 05:06:58;;;;;;;13.70;12.30;;;21.40;99.90;;;;;;4859213;29;20049;-76
2022/07/25 05:09:23;;;;;;;12.70;11.40;;;21.40;99.90;;;;;;4879539;29;20243;-76
2022/07/25 05:11:49;;;;;;;15.05;12.93;;;21.40;99.90;;;;;;4867063;29;20185;-76
2022/07/25 05:14:15;;;;;;;14.63;13.13;;;21.40;99.90;;;;;;4847294;29;20506;-76
2022/07/25 05:16:41;;;;;;;13.52;12.05;;;21.50;99.90;;;;;;4862252;29;20049;-76
2022/07/25 05:19:08;;;;;;;14.10;11.77;;;21.50;99.90;;;;;;4873142;29;20052;-76
2022/07/25 05:21:34;;;;;;;13.25;11.80;;;21.70;99.90;;;;;;4855508;29;20049;-76
2022/07/25 05:23:59;;;;;;;12.60;11.32;;;21.50;99.90;;;;;;4861952;29;20055;-76
2022/07/25 05:26:25;;;;;;;12.43;11.10;;;21.50;99.90;;;;;;4858296;29;20123;-77
2022/07/25 05:28:51;;;;;;;16.40;11.85;;;21.50;99.90;;;;;;4858614;29;20037;-76
2022/07/25 05:31:16;;;;;;;13.35;12.05;;;21.60;99.90;;;;;;4866197;29;20463;-76
2022/07/25 05:33:42;;;;;;;12.65;11.32;;;21.60;99.90;;;;;;4875385;29;20045;-76
2022/07/25 05:36:08;;;;;;;13.07;11.77;;;21.60;99.90;;;;;;4870084;29;20049;-76
2022/07/25 05:38:34;;;;;;;13.15;11.73;;;21.70;99.90;;;;;;4867656;29;20049;-77
2022/07/25 05:40:59;;;;;;;16.17;12.18;;;21.70;99.90;;;;;;4860635;29;20040;-77
2022/07/25 05:43:25;;;;;;;13.73;11.88;;;21.80;99.90;;;;;;4874546;29;20048;-77
2022/07/25 05:45:51;;;;;;;13.05;11.68;;;21.80;99.90;;;;;;4872208;29;20045;-76
2022/07/25 05:48:17;;;;;;;14.57;10.63;;;21.90;99.90;;;;;;4861131;29;20518;-76
2022/07/25 05:50:44;;;;;;;12.25;10.73;;;21.90;99.90;;;;;;4876493;29;20116;-76
2022/07/25 05:53:10;;;;;;;11.77;10.52;;;22.00;99.90;;;;;;4847322;29;20502;-77
2022/07/25 05:55:36;;;;;;;12.57;11.20;;;22.10;99.90;;;;;;4865638;29;20058;-76
2022/07/25 05:58:02;;;;;;;11.68;9.50;;;22.10;99.90;;;;;;4864550;29;20486;-77
2022/07/25 06:00:27;;;;;;;13.98;11.38;;;22.20;99.90;;;;;;4870212;29;20033;-77
2022/07/25 06:02:57;;;;;;;10.80;9.73;;;22.30;99.90;;;;;;4874237;29;20432;-76
2022/07/25 06:05:23;;;;;;;11.13;9.20;;;22.30;99.90;;;;;;4877900;29;20041;-76
2022/07/25 06:07:48;;;;;;;11.07;9.50;;;22.30;99.90;;;;;;4849586;29;20052;-76
2022/07/25 06:10:14;;;;;;;10.35;9.02;;;22.30;99.90;;;;;;4850746;29;20069;-77
2022/07/25 06:12:40;;;;;;;11.93;9.13;;;22.40;99.90;;;;;;4859241;29;20052;-77
2022/07/25 06:15:06;;;;;;;10.02;9.02;;;22.40;99.90;;;;;;4866712;29;20085;-77
2022/07/25 06:17:32;;;;;;;10.98;8.93;;;22.50;99.90;;;;;;4868470;29;20132;-76
2022/07/25 06:19:58;;;;;;;10.65;9.55;;;22.50;99.90;;;;;;4865881;29;20136;-77
2022/07/25 06:22:23;;;;;;;11.05;9.63;;;22.60;99.90;;;;;;4858436;29;20105;-76
2022/07/25 06:24:49;;;;;;;11.48;9.25;;;22.60;99.90;;;;;;4848664;29;20400;-76
2022/07/25 06:27:14;;;;;;;10.50;9.50;;;22.60;99.90;;;;;;4867441;29;20047;-77
2022/07/25 06:29:40;;;;;;;10.43;9.32;;;22.70;99.90;;;;;;4862760;29;20084;-76
2022/07/25 06:32:06;;;;;;;10.18;9.07;;;22.80;99.90;;;;;;4855992;29;20634;-76
2022/07/25 06:34:32;;;;;;;13.75;9.10;;;22.80;99.90;;;;;;4861322;29;20076;-76
2022/07/25 06:36:57;;;;;;;10.57;9.48;;;22.90;99.90;;;;;;4890386;29;20544;-76
2022/07/25 06:39:24;;;;;;;11.38;10.07;;;23.00;99.90;;;;;;4876831;29;20049;-76
2022/07/25 06:41:50;;;;;;;11.25;8.93;;;23.20;99.90;;;;;;4851369;29;20038;-76
2022/07/25 06:44:16;;;;;;;12.20;9.80;;;23.40;99.90;;;;;;4876401;29;20477;-76
2022/07/25 06:46:42;;;;;;;10.43;8.75;;;23.50;99.90;;;;;;4872949;29;20123;-76
2022/07/25 06:49:07;;;;;;;9.98;8.95;;;23.60;99.90;;;;;;4854272;29;20395;-76
2022/07/25 06:51:33;;;;;;;10.75;9.02;;;23.70;99.90;;;;;;4861572;29;20045;-76
2022/07/25 06:53:59;;;;;;;10.77;9.70;;;23.80;99.90;;;;;;4862252;29;20045;-76
2022/07/25 06:56:26;;;;;;;10.80;9.48;;;23.80;99.90;;;;;;4869797;29;20048;-76
2022/07/25 06:58:53;;;;;;;10.25;8.02;;;23.90;99.90;;;;;;4869851;29;20049;-75
2022/07/25 07:01:19;;;;;;;10.43;9.32;;;23.90;99.90;;;;;;4862579;29;20052;-77
2022/07/25 07:03:44;;;;;;;10.48;8.57;;;23.90;99.90;;;;;;4854244;29;20037;-77
2022/07/25 07:06:10;;;;;;;10.40;9.18;;;23.80;99.90;;;;;;4862484;29;20517;-76
2022/07/25 07:08:36;;;;;;;12.52;8.98;;;23.70;99.90;;;;;;4862579;29;20112;-76
2022/07/25 07:11:03;;;;;;;11.80;9.13;;;23.60;99.90;;;;;;4851803;29;20051;-76
2022/07/25 07:13:28;;;;;;;10.20;9.02;;;23.50;99.90;;;;;;4862851;29;20398;-76
2022/07/25 07:15:54;;;;;;;11.32;9.05;;;23.50;99.90;;;;;;4880689;29;20056;-76
2022/07/25 07:18:20;;;;;;;12.68;9.75;;;23.50;99.90;;;;;;4875741;29;20075;-75
2022/07/25 07:20:46;;;;;;;10.82;9.43;;;23.50;99.90;;;;;;4871593;29;20046;-76
2022/07/25 07:23:13;;;;;;;11.38;9.48;;;23.50;99.90;;;;;;4866895;29;20048;-75
2022/07/25 07:25:38;;;;;;;12.20;9.05;;;23.40;99.90;;;;;;4874624;29;20122;-75
2022/07/25 07:28:04;;;;;;;13.07;10.93;;;23.40;99.90;;;;;;4864191;29;20465;-75
2022/07/25 07:30:31;;;;;;;14.45;10.48;;;23.50;99.90;;;;;;4871731;29;20045;-75
2022/07/25 07:32:58;;;;;;;15.57;10.82;;;23.60;99.90;;;;;;4867727;29;20049;-75
2022/07/25 07:35:24;;;;;;;11.65;9.75;;;23.90;99.90;;;;;;4870955;29;20056;-76
2022/07/25 07:37:51;;;;;;;11.35;9.95;;;24.20;99.90;;;;;;4843120;29;20033;-75
2022/07/25 07:40:17;;;;;;;11.57;9.75;;;24.60;99.90;;;;;;4870309;29;20045;-75
2022/07/25 07:42:45;;;;;;;12.10;9.40;;;25.00;99.90;;;;;;4869702;29;20039;-75
2022/07/25 07:45:17;;;;;;;12.15;7.50;;;25.30;99.90;;;;;;4875612;29;20084;-75
2022/07/25 07:47:46;;;;;;;10.15;8.48;;;25.40;99.90;;;;;;4863157;29;20084;-76
2022/07/25 07:50:13;;;;;;;10.05;7.97;;;25.40;99.90;;;;;;4869125;29;20064;-76
2022/07/25 07:52:38;;;;;;;10.48;8.20;;;25.40;99.90;;;;;;4856047;29;20045;-76
2022/07/25 07:57:49;;;;;;;12.57;7.03;;;25.20;99.90;;;;;;4854948;29;20428;-76
2022/07/25 08:00:15;;;;;;;10.82;6.80;;;25.20;99.90;;;;;;4840535;29;20072;-76
2022/07/25 08:02:43;;;;;;;8.20;6.00;;;25.10;99.90;;;;;;4850828;29;20387;-77
2022/07/25 08:05:09;;;;;;;9.68;6.20;;;25.00;99.90;;;;;;4876691;29;20045;-76
2022/07/25 08:07:35;;;;;;;9.95;5.55;;;25.00;99.90;;;;;;4871855;29;20176;-77
2022/07/25 08:10:00;;;;;;;6.43;5.60;;;25.00;99.90;;;;;;4870219;29;20796;-76
2022/07/25 08:12:26;;;;;;;6.65;5.78;;;25.10;99.90;;;;;;4851150;29;20045;-76
2022/07/25 08:14:52;;;;;;;7.95;5.30;;;25.20;99.90;;;;;;4850186;29;20048;-77
2022/07/25 08:17:17;;;;;;;6.40;5.13;;;25.40;99.90;;;;;;4863069;29;20037;-77
2022/07/25 08:19:43;;;;;;;6.30;5.00;;;25.60;99.90;;;;;;4869799;29;20101;-76
2022/07/25 08:22:09;;;;;;;5.90;5.28;;;25.70;99.90;;;;;;4857124;29;20063;-76
2022/07/25 08:24:34;;;;;;;6.60;4.97;;;25.70;99.90;;;;;;4863634;29;20084;-77
2022/07/25 08:27:00;;;;;;;5.45;4.72;;;25.60;99.90;;;;;;4866759;29;20049;-76
2022/07/25 08:29:26;;;;;;;6.07;4.38;;;25.50;99.90;;;;;;4860716;29;20092;-77
2022/07/25 08:31:51;;;;;;;5.55;4.35;;;25.50;99.90;;;;;;4881123;29;20055;-77
2022/07/25 08:34:21;;;;;;;5.00;3.53;;;25.40;99.90;;;;;;4873517;29;20065;-76
2022/07/25 08:36:46;;;;;;;5.30;3.50;;;25.30;99.80;;;;;;4860499;29;20131;-76
2022/07/25 08:39:13;;;;;;;4.35;3.58;;;25.10;99.40;;;;;;4872524;29;20131;-76
2022/07/25 08:41:40;;;;;;;4.82;3.20;;;25.00;99.50;;;;;;4872172;29;20041;-76
2022/07/25 08:44:07;;;;;;;4.40;3.40;;;24.90;99.30;;;;;;4861831;29;20057;-76
2022/07/25 08:46:33;;;;;;;4.63;2.90;;;24.90;99.20;;;;;;4865368;29;20045;-76
2022/07/25 08:48:59;;;;;;;3.85;2.97;;;24.80;98.60;;;;;;4843388;29;20073;-75
2022/07/25 08:51:25;;;;;;;2.80;2.30;;;24.80;98.00;;;;;;4875050;29;20079;-76
2022/07/25 08:53:52;;;;;;;4.30;2.47;;;24.80;97.80;;;;;;4856826;29;20040;-75
2022/07/25 08:56:17;;;;;;;3.53;2.10;;;24.70;97.60;;;;;;4858014;29;20072;-76
2022/07/25 08:58:43;;;;;;;3.67;2.35;;;24.70;97.40;;;;;;4847109;29;20475;-76
2022/07/25 09:01:09;;;;;;;3.83;2.30;;;24.60;97.20;;;;;;4877130;29;20483;-76
2022/07/25 09:03:35;;;;;;;3.80;2.70;;;24.60;97.50;;;;;;4861854;29;20040;-75
2022/07/25 09:06:01;;;;;;;5.82;2.40;;;24.60;97.70;;;;;;4846487;29;20041;-75
2022/07/25 09:08:26;;;;;;;5.45;2.45;;;24.60;98.10;;;;;;4863678;29;20052;-76
2022/07/25 09:10:52;;;;;;;6.07;2.50;;;24.60;98.10;;;;;;4859176;29;20052;-76
2022/07/25 09:13:21;;;;;;;5.35;2.58;;;24.70;98.20;;;;;;4868113;29;20139;-78
2022/07/25 09:15:50;;;;;;;6.82;2.90;;;24.70;98.30;;;;;;4866576;29;20478;-76
2022/07/25 09:18:21;;;;;;;3.47;2.67;;;24.80;98.50;;;;;;4865437;29;20045;-76
2022/07/25 09:20:48;;;;;;;6.13;2.70;;;24.90;98.50;;;;;;4873002;29;20081;-76
2022/07/25 09:23:27;;;;;;;4.75;2.40;;;25.00;98.50;;;;;;4873128;29;20049;-76
2022/07/25 09:26:10;;;;;;;5.72;2.55;;;25.00;98.50;;;;;;4875891;29;20045;-76
2022/07/25 09:28:41;;;;;;;4.30;2.38;;;25.10;98.60;;;;;;4862129;29;20500;-77
2022/07/25 09:31:08;;;;;;;3.60;2.45;;;25.20;98.60;;;;;;4859800;29;20117;-75
2022/07/25 09:33:43;;;;;;;4.32;2.00;;;25.20;98.70;;;;;;4870426;29;20048;-76
2022/07/25 09:36:10;;;;;;;4.85;2.17;;;25.20;98.80;;;;;;4855152;29;20041;-76
2022/07/25 09:38:36;;;;;;;2.67;2.22;;;25.00;98.80;;;;;;4856498;29;20061;-76
2022/07/25 09:41:02;;;;;;;4.90;2.15;;;24.90;99.10;;;;;;4866025;29;20041;-76
2022/07/25 09:43:42;;;;;;;9.32;2.00;;;24.90;99.30;;;;;;4865679;29;20052;-76
2022/07/25 09:46:09;;;;;;;12.25;1.95;;;24.80;99.80;;;;;;4863066;29;20129;-75
2022/07/25 09:48:38;;;;;;;4.38;1.70;;;24.80;99.80;;;;;;4865956;29;20052;-76
2022/07/25 09:51:05;;;;;;;2.50;1.80;;;24.80;99.60;;;;;;4863380;29;20057;-77
2022/07/25 09:53:31;;;;;;;2.50;1.75;;;24.80;99.80;;;;;;4862137;29;20426;-77
2022/07/25 09:55:57;;;;;;;3.75;1.38;;;24.80;99.90;;;;;;4868205;29;20045;-77
2022/07/25 09:58:24;;;;;;;6.03;1.50;;;24.90;99.90;;;;;;4864699;29;20091;-76
2022/07/25 10:00:55;;;;;;;4.38;1.70;;;25.00;99.80;;;;;;4863950;29;20053;-77
2022/07/25 10:03:49;;;;;;;2.20;1.17;;;25.10;99.60;;;;;;4864075;29;20538;-77
2022/07/25 10:06:36;;;;;;;4.10;1.67;;;25.10;99.20;;;;;;4863932;29;20556;-77
2022/07/25 10:09:02;;;;;;;4.13;1.20;;;25.10;99.40;;;;;;4870242;29;20053;-76
2022/07/25 10:11:29;;;;;;;4.90;1.42;;;25.10;99.90;;;;;;4852570;29;20060;-76
2022/07/25 10:13:55;;;;;;;2.95;1.50;;;25.20;99.90;;;;;;4860944;29;20128;-77
2022/07/25 10:16:26;;;;;;;2.30;1.42;;;25.30;99.90;;;;;;4865513;29;20185;-76
2022/07/25 10:18:54;;;;;;;3.85;1.40;;;25.30;99.90;;;;;;4864348;29;20049;-76
2022/07/25 10:21:21;;;;;;;5.43;1.50;;;25.20;99.90;;;;;;4867731;29;20064;-77
2022/07/25 10:24:07;;;;;;;4.20;1.60;;;25.20;99.90;;;;;;4865474;29;20041;-77
2022/07/25 10:26:38;;;;;;;8.38;1.70;;;25.20;99.90;;;;;;4855277;29;20132;-76
2022/07/25 10:29:09;;;;;;;4.43;1.80;;;25.10;99.90;;;;;;4861560;29;20045;-77
2022/07/25 10:31:40;;;;;;;3.65;2.08;;;25.00;99.90;;;;;;4867195;29;20057;-76
2022/07/25 10:34:08;;;;;;;5.35;1.65;;;24.80;99.90;;;;;;4867466;29;20041;-76
2022/07/25 10:36:54;;;;;;;8.50;1.70;;;24.60;99.90;;;;;;4871300;29;20068;-76
2022/07/25 10:39:21;;;;;;;9.25;2.03;;;24.50;99.90;;;;;;4856270;29;20052;-76
2022/07/25 10:42:01;;;;;;;7.13;2.33;;;24.40;99.90;;;;;;4866534;29;20409;-76
2022/07/25 10:44:38;;;;;;;6.50;2.10;;;24.30;99.90;;;;;;4867340;29;20522;-75
2022/07/25 10:47:16;;;;;;;5.70;2.20;;;24.10;99.90;;;;;;4868952;29;20061;-76
2022/07/25 10:49:48;;;;;;;6.07;2.30;;;24.10;99.90;;;;;;4866628;29;20058;-76
2022/07/25 10:52:18;;;;;;;6.88;2.55;;;24.00;99.90;;;;;;4866260;29;20129;-76
2022/07/25 10:54:56;;;;;;;7.07;2.28;;;24.10;99.90;;;;;;4846820;29;20418;-75
2022/07/25 10:57:22;;;;;;;7.25;2.20;;;24.10;99.90;;;;;;4849409;29;20053;-76
2022/07/25 10:59:48;;;;;;;5.60;2.28;;;24.10;99.90;;;;;;4868300;29;20048;-76
2022/07/25 11:02:17;;;;;;;5.90;1.98;;;24.30;99.90;;;;;;4855035;29;20076;-77
2022/07/25 11:05:04;;;;;;;7.30;1.98;;;24.40;99.90;;;;;;4846330;29;20049;-77
2022/07/25 11:07:34;;;;;;;9.40;2.30;;;24.60;99.90;;;;;;4861760;29;20139;-77
2022/07/25 11:10:02;;;;;;;7.10;2.30;;;24.60;99.90;;;;;;4863312;29;20040;-77
2022/07/25 11:12:28;;;;;;;5.32;2.35;;;24.60;99.90;;;;;;4871386;29;20055;-76
2022/07/25 11:15:06;;;;;;;7.60;2.47;;;24.60;99.90;;;;;;4845311;29;20048;-76
2022/07/25 11:17:33;;;;;;;4.72;2.00;;;24.60;99.90;;;;;;4866329;29;20081;-76
2022/07/25 11:20:07;;;;;;;7.28;2.60;;;24.50;99.90;;;;;;4850716;29;20045;-76
2022/07/25 11:22:34;;;;;;;5.38;2.25;;;24.50;99.90;;;;;;4868060;29;20052;-76
2022/07/25 11:25:08;;;;;;;7.93;2.40;;;24.50;99.90;;;;;;4868130;29;20049;-77
2022/07/25 11:27:34;;;;;;;5.13;2.20;;;24.50;99.90;;;;;;4871445;29;20041;-77
2022/07/25 11:30:10;;;;;;;8.13;2.78;;;24.60;99.90;;;;;;4841745;29;20503;-77
2022/07/25 11:32:41;;;;;;;8.18;2.53;;;24.70;99.90;;;;;;4882305;29;20411;-77
2022/07/25 11:35:08;;;;;;;6.05;2.55;;;24.70;99.90;;;;;;4871065;29;20052;-77
2022/07/25 11:37:37;;;;;;;6.57;2.22;;;24.70;99.90;;;;;;4861766;29;20068;-77
2022/07/25 11:40:04;;;;;;;9.77;2.35;;;24.70;99.90;;;;;;4885113;29;20149;-77
2022/07/25 11:42:42;;;;;;;4.40;2.28;;;24.70;99.90;;;;;;4869871;29;20049;-76
2022/07/25 11:45:28;;;;;;;7.10;2.30;;;24.60;99.90;;;;;;4871352;29;20727;-77
2022/07/25 11:48:02;;;;;;;;;;;24.60;99.90;;;;;;4853831;29;20139;-77
2022/07/25 11:50:29;;;;;;;13.25;2.35;;;24.50;99.90;;;;;;4859666;29;19931;-76
2022/07/25 11:53:05;;;;;;;5.18;2.22;;;24.40;99.90;;;;;;4876434;29;20081;-76
2022/07/25 11:55:36;;;;;;;13.00;2.35;;;24.30;99.90;;;;;;4872693;29;20537;-76
2022/07/25 11:58:03;;;;;;;7.20;2.33;;;24.30;99.90;;;;;;4862215;29;20049;-77
2022/07/25 12:00:32;;;;;;;7.25;1.98;;;24.30;99.90;;;;;;4860505;29;20045;-76
2022/07/25 12:03:09;;;;;;;9.18;1.83;;;24.30;99.90;;;;;;4876632;29;20061;-77
2022/07/25 12:05:36;;;;;;;8.60;2.03;;;24.40;99.30;;;;;;4859275;29;20122;-77
2022/07/25 12:08:13;;;;;;;8.02;2.10;;;24.40;99.80;;;;;;4858898;29;20494;-76
2022/07/25 12:10:40;;;;;;;7.13;1.80;;;24.50;99.00;;;;;;4851345;29;20059;-76
2022/07/25 12:13:08;;;;;;;6.43;2.05;;;24.40;99.40;;;;;;4864483;29;20077;-76
2022/07/25 12:15:39;;;;;;;6.45;1.85;;;24.50;99.70;;;;;;4852358;29;20141;-76
2022/07/25 12:18:08;;;;;;;7.68;2.10;;;24.60;99.90;;;;;;4864550;29;20482;-77
2022/07/25 12:20:37;;;;;;;5.85;1.90;;;24.80;99.60;;;;;;4853002;29;20143;-76
2022/07/25 12:23:05;;;;;;;7.78;2.10;;;24.90;99.80;;;;;;4867850;29;20051;-77
2022/07/25 12:25:32;;;;;;;7.72;1.98;;;24.90;99.40;;;;;;4867791;29;20049;-77
2022/07/25 12:27:59;;;;;;;5.20;2.00;;;24.90;99.00;;;;;;4866959;29;20142;-77
2022/07/25 12:30:28;;;;;;;5.20;1.75;;;24.90;98.90;;;;;;4857072;29;20064;-77
2022/07/25 12:32:56;;;;;;;5.10;2.00;;;24.90;98.40;;;;;;4850067;29;20045;-77
2022/07/25 12:35:21;;;;;;;8.07;2.17;;;24.80;98.50;;;;;;4871044;29;20393;-77
2022/07/25 12:37:47;;;;;;;6.72;1.88;;;24.80;98.40;;;;;;4858408;29;20038;-77
2022/07/25 12:40:15;;;;;;;7.35;2.00;;;24.90;98.50;;;;;;4858083;29;20045;-77
2022/07/25 12:42:41;;;;;;;6.80;2.10;;;24.90;98.20;;;;;;4852316;29;20052;-76
2022/07/25 12:45:08;;;;;;;6.80;1.92;;;24.90;98.10;;;;;;4866925;29;20037;-77
2022/07/25 12:47:34;;;;;;;5.80;2.33;;;24.90;98.00;;;;;;4857347;29;20387;-77